sensor_id;sensor_type;location;lat;lon;timestamp;P1;durP1;ratioP1;P2;durP2;ratioP2
71610;SDS011;59459;51.172;6.682;2022-08-24T00:02:05;8.53;;;2.73;;
71610;SDS011;59459;51.172;6.682;2022-08-24T00:04:31;6.68;;;2.70;;
71610;SDS011;59459;51.172;6.682;2022-08-24T00:06:56;6.53;;;2.87;;
71610;SDS011;59459;51.172;6.682;2022-08-24T00:09:22;7.13;;;2.80;;
71610;SDS011;59459;51.172;6.682;2022-08-24T00:11:47;6.63;;;2.67;;
71610;SDS011;59459;51.172;6.682;2022-08-24T00:14:12;8.23;;;2.67;;
71610;SDS011;59459;51.172;6.682;2022-08-24T00:16:37;6.40;;;3.00;;
71610;SDS011;59459;51.172;6.682;2022-08-24T00:19:03;6.67;;;3.00;;
71610;SDS011;59459;51.172;6.682;2022-08-24T00:21:28;7.03;;;2.60;;
71610;SDS011;59459;51.172;6.682;2022-08-24T00:23:53;6.20;;;2.70;;
71610;SDS011;59459;51.172;6.682;2022-08-24T00:26:18;7.87;;;3.03;;
71610;SDS011;59459;51.172;6.682;2022-08-24T00:28:44;7.50;;;2.87;;
71610;SDS011;59459;51.172;6.682;2022-08-24T00:31:09;6.37;;;3.00;;
71610;SDS011;59459;51.172;6.682;2022-08-24T00:33:35;6.47;;;2.97;;
71610;SDS011;59459;51.172;6.682;2022-08-24T00:36:01;7.00;;;2.75;;
71610;SDS011;59459;51.172;6.682;2022-08-24T00:38:27;5.13;;;2.65;;
71610;SDS011;59459;51.172;6.682;2022-08-24T00:40:52;7.30;;;3.00;;
71610;SDS011;59459;51.172;6.682;2022-08-24T00:43:20;6.47;;;2.92;;
71610;SDS011;59459;51.172;6.682;2022-08-24T00:45:52;5.90;;;2.90;;
71610;SDS011;59459;51.172;6.682;2022-08-24T00:48:21;9.18;;;3.00;;
71610;SDS011;59459;51.172;6.682;2022-08-24T00:53:15;6.37;;;2.83;;
71610;SDS011;59459;51.172;6.682;2022-08-24T00:55:42;6.85;;;2.70;;
71610;SDS011;59459;51.172;6.682;2022-08-24T00:58:08;5.63;;;3.10;;
71610;SDS011;59459;51.172;6.682;2022-08-24T01:03:16;5.53;;;2.80;;
71610;SDS011;59459;51.172;6.682;2022-08-24T01:05:41;7.28;;;2.97;;
71610;SDS011;59459;51.172;6.682;2022-08-24T01:08:09;7.20;;;2.63;;
71610;SDS011;59459;51.172;6.682;2022-08-24T01:10:37;6.43;;;2.90;;
71610;SDS011;59459;51.172;6.682;2022-08-24T01:13:03;5.25;;;2.53;;
71610;SDS011;59459;51.172;6.682;2022-08-24T01:15:30;9.02;;;3.17;;
71610;SDS011;59459;51.172;6.682;2022-08-24T01:17:56;6.32;;;2.50;;
71610;SDS011;59459;51.172;6.682;2022-08-24T01:20:42;5.67;;;2.43;;
71610;SDS011;59459;51.172;6.682;2022-08-24T01:25:48;7.60;;;2.88;;
71610;SDS011;59459;51.172;6.682;2022-08-24T01:28:14;7.20;;;2.43;;
71610;SDS011;59459;51.172;6.682;2022-08-24T01:30:41;5.93;;;2.70;;
71610;SDS011;59459;51.172;6.682;2022-08-24T01:33:07;9.18;;;2.70;;
71610;SDS011;59459;51.172;6.682;2022-08-24T01:35:33;8.33;;;2.73;;
71610;SDS011;59459;51.172;6.682;2022-08-24T01:37:59;6.00;;;2.88;;
71610;SDS011;59459;51.172;6.682;2022-08-24T01:40:29;6.75;;;2.85;;
71610;SDS011;59459;51.172;6.682;2022-08-24T01:42:55;6.30;;;3.00;;
71610;SDS011;59459;51.172;6.682;2022-08-24T01:45:21;7.20;;;3.10;;
71610;SDS011;59459;51.172;6.682;2022-08-24T01:47:46;6.67;;;3.00;;
71610;SDS011;59459;51.172;6.682;2022-08-24T01:50:11;7.13;;;2.63;;
71610;SDS011;59459;51.172;6.682;2022-08-24T01:52:37;6.45;;;2.88;;
71610;SDS011;59459;51.172;6.682;2022-08-24T01:55:07;7.00;;;3.50;;
71610;SDS011;59459;51.172;6.682;2022-08-24T01:57:32;6.45;;;2.50;;
71610;SDS011;59459;51.172;6.682;2022-08-24T01:59:57;8.90;;;3.00;;
71610;SDS011;59459;51.172;6.682;2022-08-24T02:02:27;5.70;;;2.57;;
71610;SDS011;59459;51.172;6.682;2022-08-24T02:04:53;5.35;;;2.65;;
71610;SDS011;59459;51.172;6.682;2022-08-24T02:07:18;5.33;;;2.50;;
71610;SDS011;59459;51.172;6.682;2022-08-24T02:09:44;5.57;;;2.50;;
71610;SDS011;59459;51.172;6.682;2022-08-24T02:12:09;5.53;;;2.50;;
71610;SDS011;59459;51.172;6.682;2022-08-24T02:14:35;5.50;;;2.90;;
71610;SDS011;59459;51.172;6.682;2022-08-24T02:17:00;5.87;;;2.50;;
71610;SDS011;59459;51.172;6.682;2022-08-24T02:19:28;7.38;;;3.30;;
71610;SDS011;59459;51.172;6.682;2022-08-24T02:21:53;9.10;;;3.20;;
71610;SDS011;59459;51.172;6.682;2022-08-24T02:24:18;6.77;;;2.90;;
71610;SDS011;59459;51.172;6.682;2022-08-24T02:26:43;6.00;;;2.93;;
71610;SDS011;59459;51.172;6.682;2022-08-24T02:29:09;6.97;;;3.30;;
71610;SDS011;59459;51.172;6.682;2022-08-24T02:31:34;8.23;;;2.80;;
71610;SDS011;59459;51.172;6.682;2022-08-24T02:34:00;7.07;;;2.80;;
71610;SDS011;59459;51.172;6.682;2022-08-24T02:36:26;6.63;;;3.03;;
71610;SDS011;59459;51.172;6.682;2022-08-24T02:38:51;8.00;;;2.87;;
71610;SDS011;59459;51.172;6.682;2022-08-24T02:41:17;8.65;;;3.20;;
71610;SDS011;59459;51.172;6.682;2022-08-24T02:43:43;9.23;;;3.47;;
71610;SDS011;59459;51.172;6.682;2022-08-24T02:46:15;6.40;;;2.67;;
71610;SDS011;59459;51.172;6.682;2022-08-24T02:48:40;12.27;;;3.40;;
71610;SDS011;59459;51.172;6.682;2022-08-24T02:51:05;7.73;;;2.90;;
71610;SDS011;59459;51.172;6.682;2022-08-24T02:53:30;7.77;;;3.50;;
71610;SDS011;59459;51.172;6.682;2022-08-24T02:55:56;6.53;;;3.17;;
71610;SDS011;59459;51.172;6.682;2022-08-24T02:58:21;9.40;;;3.20;;
71610;SDS011;59459;51.172;6.682;2022-08-24T03:00:47;7.13;;;3.10;;
71610;SDS011;59459;51.172;6.682;2022-08-24T03:03:12;9.77;;;2.70;;
71610;SDS011;59459;51.172;6.682;2022-08-24T03:05:37;6.03;;;3.00;;
71610;SDS011;59459;51.172;6.682;2022-08-24T03:08:03;7.75;;;3.10;;
71610;SDS011;59459;51.172;6.682;2022-08-24T03:10:29;6.83;;;2.70;;
71610;SDS011;59459;51.172;6.682;2022-08-24T03:12:54;7.88;;;3.15;;
71610;SDS011;59459;51.172;6.682;2022-08-24T03:15:20;6.53;;;2.43;;
71610;SDS011;59459;51.172;6.682;2022-08-24T03:17:46;6.53;;;3.00;;
71610;SDS011;59459;51.172;6.682;2022-08-24T03:20:13;8.47;;;3.00;;
71610;SDS011;59459;51.172;6.682;2022-08-24T03:22:39;8.30;;;3.30;;
71610;SDS011;59459;51.172;6.682;2022-08-24T03:25:05;5.60;;;3.03;;
71610;SDS011;59459;51.172;6.682;2022-08-24T03:27:30;6.68;;;2.67;;
71610;SDS011;59459;51.172;6.682;2022-08-24T03:29:55;7.83;;;3.03;;
71610;SDS011;59459;51.172;6.682;2022-08-24T03:32:21;5.90;;;3.13;;
71610;SDS011;59459;51.172;6.682;2022-08-24T03:34:46;5.00;;;2.87;;
71610;SDS011;59459;51.172;6.682;2022-08-24T03:37:11;7.83;;;3.10;;
71610;SDS011;59459;51.172;6.682;2022-08-24T03:39:36;6.27;;;2.43;;
71610;SDS011;59459;51.172;6.682;2022-08-24T03:42:02;6.37;;;3.07;;
71610;SDS011;59459;51.172;6.682;2022-08-24T03:44:27;6.43;;;2.95;;
71610;SDS011;59459;51.172;6.682;2022-08-24T03:46:52;6.67;;;2.93;;
71610;SDS011;59459;51.172;6.682;2022-08-24T03:49:18;8.83;;;2.63;;
71610;SDS011;59459;51.172;6.682;2022-08-24T03:51:43;5.77;;;3.10;;
71610;SDS011;59459;51.172;6.682;2022-08-24T03:54:10;5.73;;;2.80;;
71610;SDS011;59459;51.172;6.682;2022-08-24T03:56:35;6.50;;;2.88;;
71610;SDS011;59459;51.172;6.682;2022-08-24T03:59:00;6.63;;;3.27;;
71610;SDS011;59459;51.172;6.682;2022-08-24T04:01:26;6.77;;;3.30;;
71610;SDS011;59459;51.172;6.682;2022-08-24T04:03:51;8.13;;;3.10;;
71610;SDS011;59459;51.172;6.682;2022-08-24T04:06:20;8.02;;;2.75;;
71610;SDS011;59459;51.172;6.682;2022-08-24T04:08:45;5.57;;;3.00;;
71610;SDS011;59459;51.172;6.682;2022-08-24T04:11:11;7.40;;;3.17;;
71610;SDS011;59459;51.172;6.682;2022-08-24T04:13:37;7.78;;;2.92;;
71610;SDS011;59459;51.172;6.682;2022-08-24T04:16:06;6.57;;;2.97;;
71610;SDS011;59459;51.172;6.682;2022-08-24T04:18:31;10.90;;;3.50;;
71610;SDS011;59459;51.172;6.682;2022-08-24T04:20:56;7.63;;;2.93;;
71610;SDS011;59459;51.172;6.682;2022-08-24T04:23:22;8.30;;;3.30;;
71610;SDS011;59459;51.172;6.682;2022-08-24T04:25:47;6.43;;;3.23;;
71610;SDS011;59459;51.172;6.682;2022-08-24T04:28:17;7.57;;;3.40;;
71610;SDS011;59459;51.172;6.682;2022-08-24T04:30:43;8.30;;;3.45;;
71610;SDS011;59459;51.172;6.682;2022-08-24T04:33:09;8.93;;;3.65;;
71610;SDS011;59459;51.172;6.682;2022-08-24T04:35:36;8.60;;;3.33;;
71610;SDS011;59459;51.172;6.682;2022-08-24T04:38:01;6.63;;;3.42;;
71610;SDS011;59459;51.172;6.682;2022-08-24T04:40:27;8.93;;;3.63;;
71610;SDS011;59459;51.172;6.682;2022-08-24T04:42:52;7.73;;;3.57;;
71610;SDS011;59459;51.172;6.682;2022-08-24T04:45:17;9.90;;;3.77;;
71610;SDS011;59459;51.172;6.682;2022-08-24T04:47:43;7.00;;;3.70;;
71610;SDS011;59459;51.172;6.682;2022-08-24T04:50:09;6.78;;;3.95;;
71610;SDS011;59459;51.172;6.682;2022-08-24T04:52:34;7.63;;;3.63;;
71610;SDS011;59459;51.172;6.682;2022-08-24T04:55:01;7.93;;;3.57;;
71610;SDS011;59459;51.172;6.682;2022-08-24T04:57:26;7.85;;;4.05;;
71610;SDS011;59459;51.172;6.682;2022-08-24T04:59:54;8.03;;;3.37;;
71610;SDS011;59459;51.172;6.682;2022-08-24T05:02:20;7.25;;;3.53;;
71610;SDS011;59459;51.172;6.682;2022-08-24T05:04:45;8.23;;;3.90;;
71610;SDS011;59459;51.172;6.682;2022-08-24T05:07:12;7.80;;;4.22;;
71610;SDS011;59459;51.172;6.682;2022-08-24T05:09:37;7.67;;;3.60;;
71610;SDS011;59459;51.172;6.682;2022-08-24T05:12:02;7.10;;;3.90;;
71610;SDS011;59459;51.172;6.682;2022-08-24T05:14:28;8.77;;;3.73;;
71610;SDS011;59459;51.172;6.682;2022-08-24T05:16:53;7.50;;;3.80;;
71610;SDS011;59459;51.172;6.682;2022-08-24T05:19:18;9.55;;;4.10;;
71610;SDS011;59459;51.172;6.682;2022-08-24T05:21:44;8.47;;;4.10;;
71610;SDS011;59459;51.172;6.682;2022-08-24T05:24:09;9.87;;;3.70;;
71610;SDS011;59459;51.172;6.682;2022-08-24T05:26:34;10.57;;;4.10;;
71610;SDS011;59459;51.172;6.682;2022-08-24T05:29:00;9.07;;;3.63;;
71610;SDS011;59459;51.172;6.682;2022-08-24T05:31:27;9.55;;;4.25;;
71610;SDS011;59459;51.172;6.682;2022-08-24T05:33:52;9.25;;;4.50;;
71610;SDS011;59459;51.172;6.682;2022-08-24T05:36:25;8.17;;;4.40;;
71610;SDS011;59459;51.172;6.682;2022-08-24T05:38:51;9.37;;;5.50;;
71610;SDS011;59459;51.172;6.682;2022-08-24T05:41:17;12.18;;;5.70;;
71610;SDS011;59459;51.172;6.682;2022-08-24T05:43:42;10.40;;;4.93;;
71610;SDS011;59459;51.172;6.682;2022-08-24T05:46:08;11.43;;;5.13;;
71610;SDS011;59459;51.172;6.682;2022-08-24T05:48:33;10.23;;;4.90;;
71610;SDS011;59459;51.172;6.682;2022-08-24T05:51:02;11.07;;;5.00;;
71610;SDS011;59459;51.172;6.682;2022-08-24T05:53:28;11.33;;;5.20;;
71610;SDS011;59459;51.172;6.682;2022-08-24T05:55:53;10.13;;;5.10;;
71610;SDS011;59459;51.172;6.682;2022-08-24T05:58:18;8.83;;;5.00;;
71610;SDS011;59459;51.172;6.682;2022-08-24T06:00:44;11.20;;;5.30;;
71610;SDS011;59459;51.172;6.682;2022-08-24T06:03:10;8.53;;;4.80;;
71610;SDS011;59459;51.172;6.682;2022-08-24T06:05:40;10.60;;;4.82;;
71610;SDS011;59459;51.172;6.682;2022-08-24T06:08:05;15.82;;;5.50;;
71610;SDS011;59459;51.172;6.682;2022-08-24T06:10:31;9.27;;;4.97;;
71610;SDS011;59459;51.172;6.682;2022-08-24T06:12:57;11.50;;;5.57;;
71610;SDS011;59459;51.172;6.682;2022-08-24T06:15:22;13.57;;;5.23;;
71610;SDS011;59459;51.172;6.682;2022-08-24T06:17:47;9.83;;;4.80;;
71610;SDS011;59459;51.172;6.682;2022-08-24T06:20:13;12.20;;;5.73;;
71610;SDS011;59459;51.172;6.682;2022-08-24T06:22:39;11.50;;;5.20;;
71610;SDS011;59459;51.172;6.682;2022-08-24T06:25:06;10.38;;;5.38;;
71610;SDS011;59459;51.172;6.682;2022-08-24T06:27:50;10.00;;;5.00;;
71610;SDS011;59459;51.172;6.682;2022-08-24T06:30:16;9.33;;;5.13;;
71610;SDS011;59459;51.172;6.682;2022-08-24T06:32:42;11.13;;;5.18;;
71610;SDS011;59459;51.172;6.682;2022-08-24T06:35:08;7.53;;;4.57;;
71610;SDS011;59459;51.172;6.682;2022-08-24T06:37:33;10.70;;;5.83;;
71610;SDS011;59459;51.172;6.682;2022-08-24T06:39:58;10.90;;;5.53;;
71610;SDS011;59459;51.172;6.682;2022-08-24T06:42:24;12.00;;;5.03;;
71610;SDS011;59459;51.172;6.682;2022-08-24T06:44:49;9.67;;;5.50;;
71610;SDS011;59459;51.172;6.682;2022-08-24T06:47:15;10.05;;;5.50;;
71610;SDS011;59459;51.172;6.682;2022-08-24T06:49:40;12.13;;;5.67;;
71610;SDS011;59459;51.172;6.682;2022-08-24T06:52:06;13.63;;;5.70;;
71610;SDS011;59459;51.172;6.682;2022-08-24T06:54:31;13.87;;;6.07;;
71610;SDS011;59459;51.172;6.682;2022-08-24T06:56:56;11.77;;;6.47;;
71610;SDS011;59459;51.172;6.682;2022-08-24T06:59:23;11.85;;;6.78;;
71610;SDS011;59459;51.172;6.682;2022-08-24T07:01:50;12.07;;;6.25;;
71610;SDS011;59459;51.172;6.682;2022-08-24T07:04:16;11.55;;;6.25;;
71610;SDS011;59459;51.172;6.682;2022-08-24T07:06:42;10.88;;;5.70;;
71610;SDS011;59459;51.172;6.682;2022-08-24T07:09:08;10.00;;;5.50;;
71610;SDS011;59459;51.172;6.682;2022-08-24T07:11:33;12.80;;;6.70;;
71610;SDS011;59459;51.172;6.682;2022-08-24T07:13:59;12.97;;;6.47;;
71610;SDS011;59459;51.172;6.682;2022-08-24T07:16:24;13.75;;;6.72;;
71610;SDS011;59459;51.172;6.682;2022-08-24T07:18:49;12.07;;;6.67;;
71610;SDS011;59459;51.172;6.682;2022-08-24T07:21:15;9.43;;;5.83;;
71610;SDS011;59459;51.172;6.682;2022-08-24T07:23:43;11.80;;;6.47;;
71610;SDS011;59459;51.172;6.682;2022-08-24T07:26:10;15.07;;;6.47;;
71610;SDS011;59459;51.172;6.682;2022-08-24T07:28:36;11.27;;;6.78;;
71610;SDS011;59459;51.172;6.682;2022-08-24T07:31:01;12.55;;;6.30;;
71610;SDS011;59459;51.172;6.682;2022-08-24T07:33:27;11.37;;;6.23;;
71610;SDS011;59459;51.172;6.682;2022-08-24T07:35:52;13.03;;;6.30;;
71610;SDS011;59459;51.172;6.682;2022-08-24T07:38:18;12.43;;;6.53;;
71610;SDS011;59459;51.172;6.682;2022-08-24T07:40:44;13.85;;;7.32;;
71610;SDS011;59459;51.172;6.682;2022-08-24T07:43:11;9.70;;;5.70;;
71610;SDS011;59459;51.172;6.682;2022-08-24T07:45:38;14.87;;;6.47;;
71610;SDS011;59459;51.172;6.682;2022-08-24T07:48:03;10.05;;;6.18;;
71610;SDS011;59459;51.172;6.682;2022-08-24T07:50:29;11.13;;;5.80;;
71610;SDS011;59459;51.172;6.682;2022-08-24T07:52:54;9.40;;;5.40;;
71610;SDS011;59459;51.172;6.682;2022-08-24T07:55:20;8.90;;;5.47;;
71610;SDS011;59459;51.172;6.682;2022-08-24T07:57:45;11.60;;;5.50;;
71610;SDS011;59459;51.172;6.682;2022-08-24T08:00:12;12.43;;;5.78;;
71610;SDS011;59459;51.172;6.682;2022-08-24T08:02:38;9.53;;;5.90;;
71610;SDS011;59459;51.172;6.682;2022-08-24T08:05:05;8.77;;;4.93;;
71610;SDS011;59459;51.172;6.682;2022-08-24T08:07:30;9.60;;;5.00;;
71610;SDS011;59459;51.172;6.682;2022-08-24T08:09:55;9.80;;;4.87;;
71610;SDS011;59459;51.172;6.682;2022-08-24T08:12:21;10.03;;;5.13;;
71610;SDS011;59459;51.172;6.682;2022-08-24T08:14:46;11.68;;;5.15;;
71610;SDS011;59459;51.172;6.682;2022-08-24T08:17:12;9.57;;;4.97;;
71610;SDS011;59459;51.172;6.682;2022-08-24T08:19:39;7.72;;;4.80;;
71610;SDS011;59459;51.172;6.682;2022-08-24T08:22:05;8.05;;;4.65;;
71610;SDS011;59459;51.172;6.682;2022-08-24T08:24:49;9.77;;;4.78;;
71610;SDS011;59459;51.172;6.682;2022-08-24T08:27:14;9.37;;;5.00;;
71610;SDS011;59459;51.172;6.682;2022-08-24T08:29:40;11.02;;;4.60;;
71610;SDS011;59459;51.172;6.682;2022-08-24T08:32:09;9.53;;;5.20;;
71610;SDS011;59459;51.172;6.682;2022-08-24T08:34:34;11.00;;;4.20;;
71610;SDS011;59459;51.172;6.682;2022-08-24T08:36:59;7.93;;;3.87;;
71610;SDS011;59459;51.172;6.682;2022-08-24T08:39:26;8.33;;;4.47;;
71610;SDS011;59459;51.172;6.682;2022-08-24T08:54:45;8.77;;;4.50;;
71610;SDS011;59459;51.172;6.682;2022-08-24T09:02:16;9.95;;;4.43;;
71610;SDS011;59459;51.172;6.682;2022-08-24T09:05:10;11.57;;;4.77;;
71610;SDS011;59459;51.172;6.682;2022-08-24T09:10:26;7.53;;;4.15;;
71610;SDS011;59459;51.172;6.682;2022-08-24T09:21:00;9.98;;;4.07;;
71610;SDS011;59459;51.172;6.682;2022-08-24T09:26:27;6.97;;;3.97;;
71610;SDS011;59459;51.172;6.682;2022-08-24T09:29:06;7.23;;;3.47;;
71610;SDS011;59459;51.172;6.682;2022-08-24T09:57:38;9.90;;;3.27;;
71610;SDS011;59459;51.172;6.682;2022-08-24T10:13:14;8.43;;;3.92;;
71610;SDS011;59459;51.172;6.682;2022-08-24T10:15:14;8.05;;;3.65;;
71610;SDS011;59459;51.172;6.682;2022-08-24T10:18:23;6.63;;;3.53;;
71610;SDS011;59459;51.172;6.682;2022-08-24T10:26:02;7.05;;;3.80;;
71610;SDS011;59459;51.172;6.682;2022-08-24T10:31:59;6.55;;;3.25;;
71610;SDS011;59459;51.172;6.682;2022-08-24T10:36:29;7.57;;;3.50;;
71610;SDS011;59459;51.172;6.682;2022-08-24T10:44:28;8.00;;;4.00;;
71610;SDS011;59459;51.172;6.682;2022-08-24T10:47:00;7.47;;;3.80;;
71610;SDS011;59459;51.172;6.682;2022-08-24T10:52:11;6.95;;;4.50;;
71610;SDS011;59459;51.172;6.682;2022-08-24T10:54:40;8.35;;;3.85;;
71610;SDS011;59459;51.172;6.682;2022-08-24T10:59:49;8.23;;;4.20;;
71610;SDS011;59459;51.172;6.682;2022-08-24T11:04:58;7.53;;;4.13;;
71610;SDS011;59459;51.172;6.682;2022-08-24T11:07:24;6.63;;;4.57;;
71610;SDS011;59459;51.172;6.682;2022-08-24T11:15:03;8.55;;;4.15;;
71610;SDS011;59459;51.172;6.682;2022-08-24T11:17:30;9.35;;;3.95;;
71610;SDS011;59459;51.172;6.682;2022-08-24T11:19:56;8.35;;;4.07;;
71610;SDS011;59459;51.172;6.682;2022-08-24T11:24:48;6.80;;;3.67;;
71610;SDS011;59459;51.172;6.682;2022-08-24T11:32:26;8.13;;;4.18;;
71610;SDS011;59459;51.172;6.682;2022-08-24T11:34:51;7.15;;;4.00;;
71610;SDS011;59459;51.172;6.682;2022-08-24T11:37:18;7.33;;;4.40;;
71610;SDS011;59459;51.172;6.682;2022-08-24T11:39:45;7.63;;;4.50;;
71610;SDS011;59459;51.172;6.682;2022-08-24T11:44:49;7.90;;;4.30;;
71610;SDS011;59459;51.172;6.682;2022-08-24T11:49:46;5.17;;;3.37;;
71610;SDS011;59459;51.172;6.682;2022-08-24T11:57:14;6.83;;;4.00;;
71610;SDS011;59459;51.172;6.682;2022-08-24T12:02:15;6.07;;;3.92;;
71610;SDS011;59459;51.172;6.682;2022-08-24T12:05:01;6.35;;;4.00;;
71610;SDS011;59459;51.172;6.682;2022-08-24T12:10:22;5.57;;;3.67;;
71610;SDS011;59459;51.172;6.682;2022-08-24T12:15:12;5.72;;;3.75;;
71610;SDS011;59459;51.172;6.682;2022-08-24T12:17:50;5.95;;;3.42;;
71610;SDS011;59459;51.172;6.682;2022-08-24T12:20:34;8.07;;;3.70;;
71610;SDS011;59459;51.172;6.682;2022-08-24T12:23:19;7.13;;;2.90;;
71610;SDS011;59459;51.172;6.682;2022-08-24T12:25:46;4.55;;;2.70;;
71610;SDS011;59459;51.172;6.682;2022-08-24T12:28:37;4.70;;;2.47;;
71610;SDS011;59459;51.172;6.682;2022-08-24T12:31:11;5.18;;;2.55;;
71610;SDS011;59459;51.172;6.682;2022-08-24T12:33:38;5.03;;;2.00;;
71610;SDS011;59459;51.172;6.682;2022-08-24T12:36:12;5.33;;;2.27;;
71610;SDS011;59459;51.172;6.682;2022-08-24T12:38:43;5.28;;;2.25;;
71610;SDS011;59459;51.172;6.682;2022-08-24T12:41:19;6.70;;;2.00;;
71610;SDS011;59459;51.172;6.682;2022-08-24T12:43:49;3.35;;;1.83;;
71610;SDS011;59459;51.172;6.682;2022-08-24T12:46:15;3.17;;;1.67;;
71610;SDS011;59459;51.172;6.682;2022-08-24T12:48:46;4.23;;;1.90;;
71610;SDS011;59459;51.172;6.682;2022-08-24T12:56:30;3.58;;;1.98;;
71610;SDS011;59459;51.172;6.682;2022-08-24T12:58:56;4.03;;;2.10;;
71610;SDS011;59459;51.172;6.682;2022-08-24T13:01:24;4.70;;;2.30;;
71610;SDS011;59459;51.172;6.682;2022-08-24T13:06:36;4.20;;;1.90;;
71610;SDS011;59459;51.172;6.682;2022-08-24T13:09:44;3.95;;;2.30;;
71610;SDS011;59459;51.172;6.682;2022-08-24T13:11:50;4.30;;;2.15;;
71610;SDS011;59459;51.172;6.682;2022-08-24T13:14:20;6.03;;;2.15;;
71610;SDS011;59459;51.172;6.682;2022-08-24T13:19:31;5.93;;;2.10;;
71610;SDS011;59459;51.172;6.682;2022-08-24T13:29:35;3.92;;;2.05;;
71610;SDS011;59459;51.172;6.682;2022-08-24T13:32:01;5.22;;;2.17;;
71610;SDS011;59459;51.172;6.682;2022-08-24T13:42:16;5.25;;;1.85;;
71610;SDS011;59459;51.172;6.682;2022-08-24T13:47:27;4.73;;;1.93;;
71610;SDS011;59459;51.172;6.682;2022-08-24T14:07:53;5.97;;;1.77;;
71610;SDS011;59459;51.172;6.682;2022-08-24T14:12:49;4.20;;;1.73;;
71610;SDS011;59459;51.172;6.682;2022-08-24T14:15:18;5.30;;;1.90;;
71610;SDS011;59459;51.172;6.682;2022-08-24T14:28:43;6.13;;;1.93;;
71610;SDS011;59459;51.172;6.682;2022-08-24T14:33:41;4.90;;;2.28;;
71610;SDS011;59459;51.172;6.682;2022-08-24T14:41:24;5.70;;;2.17;;
71610;SDS011;59459;51.172;6.682;2022-08-24T14:49:34;4.32;;;2.20;;
71610;SDS011;59459;51.172;6.682;2022-08-24T15:04:44;4.07;;;2.10;;
71610;SDS011;59459;51.172;6.682;2022-08-24T15:09:45;5.07;;;2.00;;
71610;SDS011;59459;51.172;6.682;2022-08-24T15:14:43;6.18;;;2.50;;
71610;SDS011;59459;51.172;6.682;2022-08-24T15:17:13;4.65;;;1.70;;
71610;SDS011;59459;51.172;6.682;2022-08-24T15:19:43;6.20;;;2.22;;
71610;SDS011;59459;51.172;6.682;2022-08-24T15:25:13;4.88;;;2.30;;
71610;SDS011;59459;51.172;6.682;2022-08-24T15:30:05;6.37;;;2.27;;
71610;SDS011;59459;51.172;6.682;2022-08-24T15:32:39;5.85;;;2.38;;
71610;SDS011;59459;51.172;6.682;2022-08-24T15:35:05;5.20;;;2.15;;
71610;SDS011;59459;51.172;6.682;2022-08-24T15:37:32;4.00;;;2.13;;
71610;SDS011;59459;51.172;6.682;2022-08-24T15:39:57;5.10;;;2.30;;
71610;SDS011;59459;51.172;6.682;2022-08-24T15:42:24;6.23;;;2.50;;
71610;SDS011;59459;51.172;6.682;2022-08-24T15:44:50;5.22;;;2.45;;
71610;SDS011;59459;51.172;6.682;2022-08-24T15:47:25;4.33;;;2.30;;
71610;SDS011;59459;51.172;6.682;2022-08-24T15:54:59;8.50;;;2.60;;
71610;SDS011;59459;51.172;6.682;2022-08-24T15:57:27;5.30;;;2.17;;
71610;SDS011;59459;51.172;6.682;2022-08-24T15:59:55;6.90;;;2.60;;
71610;SDS011;59459;51.172;6.682;2022-08-24T16:02:30;4.70;;;2.30;;
71610;SDS011;59459;51.172;6.682;2022-08-24T16:07:25;3.92;;;2.35;;
71610;SDS011;59459;51.172;6.682;2022-08-24T16:10:06;4.47;;;2.08;;
71610;SDS011;59459;51.172;6.682;2022-08-24T16:12:32;4.85;;;1.90;;
71610;SDS011;59459;51.172;6.682;2022-08-24T16:15:09;8.93;;;2.10;;
71610;SDS011;59459;51.172;6.682;2022-08-24T16:17:37;7.38;;;2.15;;
71610;SDS011;59459;51.172;6.682;2022-08-24T16:20:05;4.67;;;2.00;;
71610;SDS011;59459;51.172;6.682;2022-08-24T16:22:36;6.03;;;2.15;;
71610;SDS011;59459;51.172;6.682;2022-08-24T16:25:12;5.28;;;2.28;;
71610;SDS011;59459;51.172;6.682;2022-08-24T16:28:00;4.38;;;1.98;;
71610;SDS011;59459;51.172;6.682;2022-08-24T16:30:34;4.50;;;1.95;;
71610;SDS011;59459;51.172;6.682;2022-08-24T16:33:00;5.03;;;2.07;;
71610;SDS011;59459;51.172;6.682;2022-08-24T16:35:25;5.27;;;2.30;;
71610;SDS011;59459;51.172;6.682;2022-08-24T16:37:51;6.70;;;2.23;;
71610;SDS011;59459;51.172;6.682;2022-08-24T16:40:18;5.10;;;2.13;;
71610;SDS011;59459;51.172;6.682;2022-08-24T16:42:44;5.50;;;1.88;;
71610;SDS011;59459;51.172;6.682;2022-08-24T16:45:10;4.40;;;2.00;;
71610;SDS011;59459;51.172;6.682;2022-08-24T16:47:36;5.82;;;2.08;;
71610;SDS011;59459;51.172;6.682;2022-08-24T16:50:02;5.07;;;2.10;;
71610;SDS011;59459;51.172;6.682;2022-08-24T16:52:27;5.00;;;2.30;;
71610;SDS011;59459;51.172;6.682;2022-08-24T16:54:53;5.07;;;2.40;;
71610;SDS011;59459;51.172;6.682;2022-08-24T16:57:22;5.50;;;2.70;;
71610;SDS011;59459;51.172;6.682;2022-08-24T16:59:48;4.20;;;2.20;;
71610;SDS011;59459;51.172;6.682;2022-08-24T17:02:14;4.15;;;2.00;;
71610;SDS011;59459;51.172;6.682;2022-08-24T17:04:39;5.27;;;2.10;;
71610;SDS011;59459;51.172;6.682;2022-08-24T17:07:05;8.60;;;2.40;;
71610;SDS011;59459;51.172;6.682;2022-08-24T17:09:31;4.73;;;2.20;;
71610;SDS011;59459;51.172;6.682;2022-08-24T17:11:57;4.13;;;2.30;;
71610;SDS011;59459;51.172;6.682;2022-08-24T17:14:22;5.63;;;2.17;;
71610;SDS011;59459;51.172;6.682;2022-08-24T17:16:47;4.57;;;2.03;;
71610;SDS011;59459;51.172;6.682;2022-08-24T17:19:13;7.80;;;2.10;;
71610;SDS011;59459;51.172;6.682;2022-08-24T17:21:39;5.90;;;1.95;;
71610;SDS011;59459;51.172;6.682;2022-08-24T17:24:05;4.67;;;2.40;;
71610;SDS011;59459;51.172;6.682;2022-08-24T17:26:31;4.40;;;2.33;;
71610;SDS011;59459;51.172;6.682;2022-08-24T17:28:56;6.30;;;2.70;;
71610;SDS011;59459;51.172;6.682;2022-08-24T17:31:22;5.35;;;2.50;;
71610;SDS011;59459;51.172;6.682;2022-08-24T17:33:48;4.10;;;2.17;;
71610;SDS011;59459;51.172;6.682;2022-08-24T17:36:14;6.93;;;2.70;;
71610;SDS011;59459;51.172;6.682;2022-08-24T17:38:41;6.00;;;2.40;;
71610;SDS011;59459;51.172;6.682;2022-08-24T17:41:09;6.10;;;2.22;;
71610;SDS011;59459;51.172;6.682;2022-08-24T17:43:35;5.37;;;2.30;;
71610;SDS011;59459;51.172;6.682;2022-08-24T17:46:00;8.93;;;2.50;;
71610;SDS011;59459;51.172;6.682;2022-08-24T17:48:25;5.17;;;2.37;;
71610;SDS011;59459;51.172;6.682;2022-08-24T17:50:51;10.13;;;2.75;;
71610;SDS011;59459;51.172;6.682;2022-08-24T17:53:17;6.97;;;2.58;;
71610;SDS011;59459;51.172;6.682;2022-08-24T17:55:42;7.60;;;2.33;;
71610;SDS011;59459;51.172;6.682;2022-08-24T17:58:07;7.43;;;2.67;;
71610;SDS011;59459;51.172;6.682;2022-08-24T18:00:32;5.23;;;2.77;;
71610;SDS011;59459;51.172;6.682;2022-08-24T18:02:58;5.07;;;2.50;;
71610;SDS011;59459;51.172;6.682;2022-08-24T18:05:23;4.83;;;2.10;;
71610;SDS011;59459;51.172;6.682;2022-08-24T18:07:50;7.40;;;2.40;;
71610;SDS011;59459;51.172;6.682;2022-08-24T18:10:16;6.18;;;2.63;;
71610;SDS011;59459;51.172;6.682;2022-08-24T18:12:42;6.40;;;2.65;;
71610;SDS011;59459;51.172;6.682;2022-08-24T18:15:08;5.40;;;2.80;;
71610;SDS011;59459;51.172;6.682;2022-08-24T18:17:38;6.13;;;2.90;;
71610;SDS011;59459;51.172;6.682;2022-08-24T18:20:04;5.53;;;2.95;;
71610;SDS011;59459;51.172;6.682;2022-08-24T18:22:31;6.28;;;2.80;;
71610;SDS011;59459;51.172;6.682;2022-08-24T18:24:56;6.93;;;3.10;;
71610;SDS011;59459;51.172;6.682;2022-08-24T18:27:23;7.63;;;2.90;;
71610;SDS011;59459;51.172;6.682;2022-08-24T18:29:50;8.02;;;2.90;;
71610;SDS011;59459;51.172;6.682;2022-08-24T18:32:15;7.10;;;3.47;;
71610;SDS011;59459;51.172;6.682;2022-08-24T18:34:41;7.75;;;3.08;;
71610;SDS011;59459;51.172;6.682;2022-08-24T18:37:07;6.97;;;2.97;;
71610;SDS011;59459;51.172;6.682;2022-08-24T18:39:32;5.50;;;3.17;;
71610;SDS011;59459;51.172;6.682;2022-08-24T18:41:58;7.53;;;3.40;;
71610;SDS011;59459;51.172;6.682;2022-08-24T18:44:24;6.60;;;3.45;;